Vichy, Missouri
Current Conditions -  °F | °C
As of 7:24 AM on Thursday 18 Dec 2014 (Local Time) from KVIH Reporting Station
Haze Haze  
Wind Chill: 23°   Ceiling: 400
Heat Index: 30°   Visibility: 5mi
Dew Point: 28°   Wind: 7mph
Humidity: 92%   Direction: 80°E
Pressure: 30.2"   Gusts: NA
Location:  38.11°N, 91.76°W
Report Text: KVIH 181324Z AUTO 08006KT 5SM BR OVC004 M01/M02 A3020 RMK AO2 SNE13 P0000 T10111022
Loading
Personal Weather Stations






























Interactive Weather Map New forecast layout! Learn more

10-Day Weather Forecast

Advertisements
Track Severe Weather on mobile